createdAt,value
2022-11-05T00:02:29.918Z,44.67
2022-11-05T00:05:15.351Z,57.20
2022-11-05T00:08:03.021Z,44.03
2022-11-05T00:10:31.358Z,49.45
2022-11-05T00:13:17.585Z,49.13
2022-11-05T00:16:03.392Z,50.97
2022-11-05T00:18:30.186Z,47.78
2022-11-05T00:20:57.138Z,49.95
2022-11-05T00:23:42.514Z,53.17
2022-11-05T00:26:11.570Z,51.83
2022-11-05T00:31:09.767Z,46.78
2022-11-05T00:33:37.667Z,52.97
2022-11-05T00:36:05.582Z,54.72
2022-11-05T00:38:32.376Z,51.28
2022-11-05T00:40:59.302Z,50.25
2022-11-05T00:43:44.444Z,52.78
2022-11-05T00:46:11.255Z,56.35
2022-11-05T00:48:56.979Z,48.70
2022-11-05T00:51:23.656Z,48.38
2022-11-05T00:53:50.279Z,49.03
2022-11-05T00:56:16.961Z,50.10
2022-11-05T00:58:43.621Z,48.20
2022-11-05T01:01:10.442Z,49.53
2022-11-05T01:03:39.212Z,48.00
2022-11-05T01:06:12.828Z,48.40
2022-11-05T01:08:40.417Z,46.33
2022-11-05T01:11:33.339Z,52.45
2022-11-05T01:14:09.847Z,46.45
2022-11-05T01:16:37.586Z,48.75
2022-11-05T01:19:05.875Z,46.90
2022-11-05T01:21:32.909Z,67.22
2022-11-05T01:24:00.158Z,48.00
2022-11-05T01:26:27.091Z,54.40
2022-11-05T01:28:54.999Z,47.55
2022-11-05T01:31:22.363Z,54.10
2022-11-05T01:33:49.078Z,48.78
2022-11-05T01:36:15.896Z,47.80
2022-11-05T01:38:42.655Z,51.13
2022-11-05T01:41:09.923Z,53.10
2022-11-05T01:43:57.327Z,52.38
2022-11-05T01:46:28.029Z,54.00
2022-11-05T01:49:02.694Z,63.88
2022-11-05T01:54:04.009Z,55.65
2022-11-05T01:56:38.306Z,57.97
2022-11-05T01:59:37.355Z,60.47
2022-11-05T02:02:04.239Z,56.35
2022-11-05T02:04:35.696Z,52.08
2022-11-05T02:07:03.444Z,59.45
2022-11-05T02:09:34.279Z,51.55
2022-11-05T02:12:01.076Z,63.97
2022-11-05T02:14:27.698Z,52.03
2022-11-05T02:17:19.790Z,57.95
2022-11-05T02:20:24.537Z,59.53
2022-11-05T02:23:24.923Z,60.25
2022-11-05T02:26:08.089Z,62.20
2022-11-05T02:29:04.531Z,60.38
2022-11-05T02:31:40.946Z,57.00
2022-11-05T02:34:32.292Z,56.45
2022-11-05T02:37:10.247Z,65.03
2022-11-05T02:39:53.027Z,57.67
2022-11-05T02:42:31.922Z,60.67
2022-11-05T02:45:13.426Z,69.32
2022-11-05T02:47:50.706Z,62.35
2022-11-05T02:50:25.138Z,66.70
2022-11-05T02:53:16.734Z,55.95
2022-11-05T02:55:55.554Z,61.65
2022-11-05T02:58:22.184Z,57.22
2022-11-05T03:00:51.255Z,61.95
2022-11-05T03:06:09.941Z,63.30
2022-11-05T03:08:58.124Z,57.92
2022-11-05T03:11:27.279Z,63.03
2022-11-05T03:14:03.836Z,70.75
2022-11-05T03:16:37.795Z,63.47
2022-11-05T03:19:21.049Z,61.85
2022-11-05T03:21:54.239Z,67.47
2022-11-05T03:24:24.804Z,61.25
2022-11-05T03:26:55.785Z,70.88
2022-11-05T03:29:27.443Z,69.90
2022-11-05T03:31:56.324Z,66.40
2022-11-05T03:34:28.495Z,65.38
2022-11-05T03:36:56.406Z,62.95
2022-11-05T03:39:33.199Z,63.00
2022-11-05T03:42:01.041Z,62.80
2022-11-05T03:44:31.072Z,59.95
2022-11-05T03:47:02.570Z,65.43
2022-11-05T03:49:34.764Z,64.65
2022-11-05T03:52:08.585Z,69.72
2022-11-05T03:54:35.327Z,71.22
2022-11-05T03:57:21.043Z,62.40
2022-11-05T03:59:49.655Z,64.53
2022-11-05T04:02:18.933Z,68.78
2022-11-05T04:04:46.422Z,69.60
2022-11-05T04:07:31.540Z,70.95
2022-11-05T04:10:16.944Z,67.70
2022-11-05T04:13:02.470Z,62.85
2022-11-05T04:15:52.014Z,66.90
2022-11-05T04:18:18.991Z,75.78
2022-11-05T04:21:04.609Z,64.75
2022-11-05T04:23:50.010Z,70.63
2022-11-05T04:26:16.663Z,68.22
2022-11-05T04:29:06.835Z,71.00
2022-11-05T04:31:34.583Z,66.75
2022-11-05T04:34:01.318Z,71.40
2022-11-05T04:36:28.157Z,74.00
2022-11-05T04:38:54.818Z,69.07
2022-11-05T04:41:21.529Z,68.45
2022-11-05T04:43:48.792Z,70.80
2022-11-05T04:46:15.463Z,69.45
2022-11-05T04:48:42.069Z,72.80
2022-11-05T04:51:08.690Z,72.05
2022-11-05T04:53:35.400Z,80.03
2022-11-05T04:56:24.556Z,85.18
2022-11-05T04:58:51.526Z,103.28
2022-11-05T05:01:23.324Z,77.57
2022-11-05T05:03:51.148Z,76.03
2022-11-05T05:06:18.020Z,85.95
2022-11-05T05:08:45.062Z,75.00
2022-11-05T05:11:13.356Z,67.50
2022-11-05T05:13:39.962Z,70.18
2022-11-05T05:16:16.883Z,80.15
2022-11-05T05:18:46.222Z,72.53
2022-11-05T05:21:32.041Z,82.70
2022-11-05T05:23:58.894Z,69.03
2022-11-05T05:26:25.729Z,79.70
2022-11-05T05:28:53.730Z,70.60
2022-11-05T05:31:21.535Z,79.68
2022-11-05T05:33:48.407Z,83.13
2022-11-05T05:36:15.038Z,90.13
2022-11-05T05:38:41.666Z,82.85
2022-11-05T05:41:08.351Z,71.18
2022-11-05T05:43:35.043Z,65.03
2022-11-05T05:46:05.717Z,74.53
2022-11-05T05:48:32.467Z,73.93
2022-11-05T05:51:03.519Z,74.78
2022-11-05T05:53:30.631Z,77.30
2022-11-05T05:55:58.219Z,69.68
2022-11-05T05:58:28.923Z,78.43
2022-11-05T06:00:55.582Z,72.53
2022-11-05T06:03:22.222Z,86.13
2022-11-05T06:05:48.846Z,72.50
2022-11-05T06:08:15.473Z,65.70
2022-11-05T06:11:01.210Z,62.80
2022-11-05T06:13:28.387Z,66.80
2022-11-05T06:16:09.251Z,60.33
2022-11-05T06:18:36.692Z,69.30
2022-11-05T06:21:03.886Z,65.22
2022-11-05T06:23:34.980Z,68.15
2022-11-05T06:26:02.801Z,71.68
2022-11-05T06:28:29.749Z,60.10
2022-11-05T06:30:57.340Z,57.80
2022-11-05T06:33:24.312Z,62.17
2022-11-05T06:35:51.079Z,65.47
2022-11-05T06:38:17.758Z,59.70
2022-11-05T06:40:44.501Z,60.60
2022-11-05T06:43:11.438Z,67.47
2022-11-05T06:45:38.266Z,62.22
2022-11-05T06:48:05.247Z,63.90
2022-11-05T06:50:31.903Z,58.50
2022-11-05T06:53:00.411Z,61.30
2022-11-05T06:55:28.230Z,57.28
2022-11-05T06:57:55.483Z,63.13
2022-11-05T07:00:22.726Z,47.80
2022-11-05T07:02:49.766Z,62.45
2022-11-05T07:05:16.997Z,59.17
2022-11-05T07:07:44.648Z,59.95
2022-11-05T07:10:16.952Z,50.47
2022-11-05T07:12:43.671Z,50.28
2022-11-05T07:15:11.643Z,46.15
2022-11-05T07:17:39.496Z,56.85
2022-11-05T07:20:07.540Z,53.05
2022-11-05T07:22:35.084Z,46.38
2022-11-05T07:25:02.043Z,54.00
2022-11-05T07:27:28.774Z,49.00
2022-11-05T07:29:55.488Z,51.80
2022-11-05T07:32:22.213Z,47.97
2022-11-05T07:34:48.846Z,52.40
2022-11-05T07:37:16.832Z,44.97
2022-11-05T07:39:43.551Z,52.50
2022-11-05T07:42:13.949Z,49.55
2022-11-05T07:44:40.596Z,48.55
2022-11-05T07:47:07.664Z,46.50
2022-11-05T07:49:34.279Z,45.67
2022-11-05T07:52:00.909Z,49.75
2022-11-05T07:54:27.713Z,49.65
2022-11-05T07:56:54.379Z,55.75
2022-11-05T07:59:22.178Z,45.90
2022-11-05T08:01:49.033Z,52.30
2022-11-05T08:04:15.817Z,45.45
2022-11-05T08:06:42.489Z,43.05
2022-11-05T08:09:09.604Z,44.25
2022-11-05T08:11:36.304Z,49.88
2022-11-05T08:14:02.970Z,50.50
2022-11-05T08:16:29.698Z,50.67
2022-11-05T08:18:56.303Z,49.03
2022-11-05T08:21:22.928Z,45.67
2022-11-05T08:23:49.558Z,47.85
2022-11-05T08:26:16.196Z,47.88
2022-11-05T08:28:42.859Z,48.42
2022-11-05T08:31:09.475Z,46.40
2022-11-05T08:33:36.197Z,46.50
2022-11-05T08:36:04.482Z,50.03
2022-11-05T08:38:31.307Z,46.67
2022-11-05T08:40:58.335Z,50.33
2022-11-05T08:43:25.286Z,48.67
2022-11-05T08:45:52.004Z,46.15
2022-11-05T08:48:19.218Z,46.78
2022-11-05T08:50:46.946Z,42.90
2022-11-05T08:53:14.403Z,44.75
2022-11-05T08:55:41.333Z,51.58
2022-11-05T08:58:12.702Z,45.70
2022-11-05T09:00:40.193Z,45.03
2022-11-05T09:03:08.547Z,42.35
2022-11-05T09:05:37.781Z,46.92
2022-11-05T09:08:09.611Z,42.15
2022-11-05T09:10:36.554Z,45.88
2022-11-05T09:13:04.342Z,50.10
2022-11-05T09:15:31.671Z,40.33
2022-11-05T09:17:58.367Z,51.00
2022-11-05T09:20:25.061Z,44.58
2022-11-05T09:22:51.960Z,39.58
2022-11-05T09:25:18.577Z,44.38
2022-11-05T09:27:45.255Z,47.75
2022-11-05T09:30:13.309Z,48.42
2022-11-05T09:32:40.155Z,43.20
2022-11-05T09:35:07.583Z,50.88
2022-11-05T09:37:34.583Z,43.25
2022-11-05T09:40:01.201Z,46.97
2022-11-05T09:42:47.059Z,48.00
2022-11-05T09:45:17.531Z,39.05
2022-11-05T09:47:50.055Z,41.83
2022-11-05T09:50:23.006Z,49.88
2022-11-05T09:52:49.741Z,45.42
2022-11-05T09:55:28.256Z,45.67
2022-11-05T09:57:58.305Z,42.63
2022-11-05T10:00:25.000Z,44.75
2022-11-05T10:02:55.722Z,46.05
2022-11-05T10:05:24.228Z,43.95
2022-11-05T10:07:59.703Z,42.65
2022-11-05T10:10:40.593Z,36.25
2022-11-05T10:13:17.343Z,37.20
2022-11-05T10:15:51.778Z,38.63
2022-11-05T10:18:34.118Z,37.30
2022-11-05T10:21:01.214Z,36.78
2022-11-05T10:23:28.522Z,36.00
2022-11-05T10:25:58.466Z,37.38
2022-11-05T10:28:29.822Z,40.60
2022-11-05T10:30:59.763Z,40.63
2022-11-05T10:33:34.403Z,37.58
2022-11-05T10:36:10.735Z,41.97
2022-11-05T10:38:37.607Z,41.90
2022-11-05T10:41:10.174Z,40.67
2022-11-05T10:43:49.723Z,47.97
2022-11-05T10:46:29.235Z,39.45
2022-11-05T10:49:22.933Z,37.85
2022-11-05T10:51:56.973Z,37.42
2022-11-05T10:54:26.916Z,34.17
2022-11-05T10:56:53.535Z,36.65
2022-11-05T10:59:27.197Z,39.95
2022-11-05T11:02:02.864Z,35.28
2022-11-05T11:04:36.502Z,36.67
2022-11-05T11:07:04.601Z,37.10
2022-11-05T11:09:33.223Z,37.55
2022-11-05T11:12:06.508Z,37.53
2022-11-05T11:14:35.101Z,33.15
2022-11-05T11:17:31.547Z,38.42
2022-11-05T11:20:16.436Z,38.28
2022-11-05T11:22:56.087Z,47.85
2022-11-05T11:25:27.901Z,34.97
2022-11-05T11:27:54.842Z,39.65
2022-11-05T11:30:21.969Z,38.17
2022-11-05T11:32:49.344Z,33.22
2022-11-05T11:35:22.428Z,32.15
2022-11-05T11:37:49.594Z,38.10
2022-11-05T11:40:20.023Z,31.48
2022-11-05T11:42:49.480Z,32.50
2022-11-05T11:45:21.341Z,38.42
2022-11-05T11:47:49.254Z,37.80
2022-11-05T11:50:34.870Z,34.65
2022-11-05T11:53:20.245Z,33.78
2022-11-05T11:55:57.061Z,36.92
2022-11-05T11:58:25.835Z,37.17
2022-11-05T12:01:20.730Z,34.53
2022-11-05T12:04:29.411Z,33.50
2022-11-05T12:07:17.334Z,31.30
2022-11-05T12:10:01.813Z,38.25
2022-11-05T12:12:37.677Z,41.28
2022-11-05T12:15:32.827Z,34.83
2022-11-05T12:18:04.907Z,34.30
2022-11-05T12:20:48.638Z,34.92
2022-11-05T12:23:42.167Z,31.40
2022-11-05T12:26:45.855Z,37.83
2022-11-05T12:29:24.453Z,39.15
2022-11-05T12:32:03.356Z,41.17
2022-11-05T12:34:52.305Z,41.53
2022-11-05T12:37:24.911Z,35.67
2022-11-05T12:39:51.534Z,39.92
2022-11-05T12:43:17.408Z,41.88
2022-11-05T12:45:50.518Z,36.45
2022-11-05T12:48:35.838Z,38.90
2022-11-05T12:51:12.657Z,37.05
2022-11-05T12:54:17.888Z,36.55
2022-11-05T12:56:48.333Z,40.95
2022-11-05T12:59:20.095Z,36.25
2022-11-05T13:01:51.888Z,39.15
2022-11-05T13:04:50.858Z,35.67
2022-11-05T13:07:23.035Z,35.15
2022-11-05T13:10:00.220Z,41.25
2022-11-05T13:12:27.910Z,36.60
2022-11-05T13:15:13.354Z,33.38
2022-11-05T13:18:07.044Z,38.50
2022-11-05T13:20:37.933Z,32.65
2022-11-05T13:23:20.727Z,37.33
2022-11-05T13:25:54.802Z,36.80
2022-11-05T13:28:50.125Z,34.67
2022-11-05T13:31:21.078Z,34.72
2022-11-05T13:33:49.046Z,39.45
2022-11-05T13:36:36.584Z,36.50
2022-11-05T13:39:28.222Z,44.70
2022-11-05T13:42:13.487Z,36.55
2022-11-05T13:44:42.755Z,35.53
2022-11-05T13:47:28.275Z,39.67
2022-11-05T13:50:32.397Z,35.50
2022-11-05T13:53:23.363Z,37.72
2022-11-05T13:56:02.072Z,43.70
2022-11-05T13:58:49.494Z,41.05
2022-11-05T14:03:53.907Z,40.25
2022-11-05T14:06:38.603Z,36.00
2022-11-05T14:09:09.324Z,36.95
2022-11-05T14:11:50.957Z,38.58
2022-11-05T14:14:24.055Z,35.58
2022-11-05T14:17:14.019Z,32.88
2022-11-05T14:20:02.535Z,36.92
2022-11-05T14:22:32.174Z,43.15
2022-11-05T14:24:59.902Z,36.83
2022-11-05T14:27:29.490Z,40.88
2022-11-05T14:29:56.156Z,40.45
2022-11-05T14:32:25.229Z,40.70
2022-11-05T14:35:16.773Z,37.55
2022-11-05T14:37:54.401Z,37.95
2022-11-05T14:40:24.232Z,39.25
2022-11-05T14:42:57.195Z,39.15
2022-11-05T14:45:30.621Z,43.00
2022-11-05T14:48:03.002Z,36.30
2022-11-05T14:50:35.597Z,35.95
2022-11-05T14:53:10.629Z,40.40
2022-11-05T14:55:40.466Z,37.80
2022-11-05T14:58:28.511Z,49.75
2022-11-05T15:00:56.364Z,43.92
2022-11-05T15:03:45.970Z,39.50
2022-11-05T15:06:22.408Z,41.88
2022-11-05T15:08:48.971Z,45.60
2022-11-05T15:11:27.718Z,46.53
2022-11-05T15:13:54.331Z,52.00
2022-11-05T15:16:32.972Z,46.28
2022-11-05T15:19:00.215Z,42.60
2022-11-05T15:21:27.896Z,39.33
2022-11-05T15:23:59.262Z,39.85
2022-11-05T15:26:37.911Z,41.47
2022-11-05T15:29:15.676Z,44.63
2022-11-05T15:31:45.407Z,36.75
2022-11-05T15:34:30.974Z,47.03
2022-11-05T15:37:21.028Z,44.25
2022-11-05T15:39:49.926Z,39.58
2022-11-05T15:42:19.741Z,47.72
2022-11-05T15:44:51.091Z,46.45
2022-11-05T15:47:17.751Z,45.30
2022-11-05T15:49:56.376Z,43.70
2022-11-05T15:53:04.822Z,44.58
2022-11-05T15:55:52.627Z,45.30
2022-11-05T15:58:19.285Z,52.92
2022-11-05T16:00:49.484Z,40.85
2022-11-05T16:03:33.946Z,47.78
2022-11-05T16:06:01.218Z,44.55
2022-11-05T16:08:29.955Z,45.85
2022-11-05T16:11:01.144Z,42.58
2022-11-05T16:13:30.428Z,45.53
2022-11-05T16:15:59.950Z,39.00
2022-11-05T16:18:33.029Z,47.00
2022-11-05T16:21:22.729Z,44.70
2022-11-05T16:23:49.728Z,47.67
2022-11-05T16:29:39.935Z,41.90
2022-11-05T16:32:29.491Z,47.58
2022-11-05T16:35:02.810Z,44.17
2022-11-05T16:37:35.955Z,45.95
2022-11-05T16:40:03.734Z,51.40
2022-11-05T16:42:33.115Z,49.70
2022-11-05T16:44:59.757Z,44.92
2022-11-05T16:47:26.590Z,41.38
2022-11-05T16:49:53.220Z,43.00
2022-11-05T16:52:19.984Z,48.58
2022-11-05T16:54:46.776Z,48.67
2022-11-05T16:57:28.475Z,49.92
2022-11-05T16:59:55.840Z,66.10
2022-11-05T17:02:22.816Z,66.40
2022-11-05T17:04:49.622Z,61.50
2022-11-05T17:07:16.273Z,54.13
2022-11-05T17:09:43.141Z,50.40
2022-11-05T17:12:12.942Z,41.05
2022-11-05T17:14:39.569Z,41.58
2022-11-05T17:17:06.630Z,46.30
2022-11-05T17:19:33.635Z,46.40
2022-11-05T17:22:00.266Z,56.53
2022-11-05T17:24:26.904Z,62.47
2022-11-05T17:26:53.557Z,54.83
2022-11-05T17:29:20.269Z,59.95
2022-11-05T17:31:46.954Z,59.33
2022-11-05T17:34:13.667Z,94.25
2022-11-05T17:36:40.323Z,59.08
2022-11-05T17:39:06.998Z,76.75
2022-11-05T17:41:33.636Z,73.63
2022-11-05T17:44:00.683Z,57.80
2022-11-05T17:46:27.783Z,78.32
2022-11-05T17:48:54.431Z,56.22
2022-11-05T17:51:21.406Z,72.03
2022-11-05T17:53:51.224Z,66.22
2022-11-05T17:56:32.141Z,55.72
2022-11-05T17:59:01.380Z,78.20
2022-11-05T18:01:30.360Z,60.72
2022-11-05T18:03:57.220Z,67.38
2022-11-05T18:06:23.949Z,54.72
2022-11-05T18:08:50.726Z,71.88
2022-11-05T18:11:17.762Z,81.88
2022-11-05T18:13:44.563Z,58.95
2022-11-05T18:16:12.413Z,71.63
2022-11-05T18:18:39.110Z,95.88
2022-11-05T18:21:05.834Z,64.53
2022-11-05T18:23:32.796Z,65.70
2022-11-05T18:25:59.516Z,72.63
2022-11-05T18:28:26.175Z,65.63
2022-11-05T18:30:52.884Z,117.72
2022-11-05T18:33:20.749Z,75.93
2022-11-05T18:35:47.388Z,81.88
2022-11-05T18:38:14.017Z,53.13
2022-11-05T18:40:40.697Z,60.50
2022-11-05T18:43:07.432Z,61.85
2022-11-05T18:45:34.085Z,52.95
2022-11-05T18:48:01.820Z,57.38
2022-11-05T18:50:29.401Z,94.50
2022-11-05T18:52:56.508Z,70.60
2022-11-05T18:55:24.052Z,63.72
2022-11-05T18:57:50.818Z,77.45
2022-11-05T19:00:17.637Z,58.38
2022-11-05T19:02:44.455Z,53.10
2022-11-05T19:07:57.925Z,60.45
2022-11-05T19:10:25.131Z,98.35
2022-11-05T19:12:51.974Z,93.82
2022-11-05T19:15:18.675Z,94.22
2022-11-05T19:17:45.315Z,55.38
2022-11-05T19:20:12.274Z,54.65
2022-11-05T19:22:38.953Z,63.78
2022-11-05T19:25:06.454Z,83.30
2022-11-05T19:27:35.414Z,67.00
2022-11-05T19:30:02.493Z,66.68
2022-11-05T19:32:29.534Z,77.97
2022-11-05T19:34:56.130Z,101.25
2022-11-05T19:37:22.828Z,95.30
2022-11-05T19:39:49.443Z,60.83
2022-11-05T19:42:16.102Z,83.38
2022-11-05T19:44:43.793Z,62.92
2022-11-05T19:47:10.577Z,63.47
2022-11-05T19:49:37.236Z,59.10
2022-11-05T19:52:03.942Z,77.57
2022-11-05T19:54:30.609Z,61.75
2022-11-05T19:56:57.402Z,62.67
2022-11-05T19:59:24.128Z,60.63
2022-11-05T20:01:50.964Z,64.53
2022-11-05T20:04:17.684Z,66.82
2022-11-05T20:06:44.551Z,72.97
2022-11-05T20:09:22.727Z,70.35
2022-11-05T20:11:54.516Z,69.47
2022-11-05T20:14:21.802Z,67.30
2022-11-05T20:16:49.532Z,83.10
2022-11-05T20:19:19.187Z,70.97
2022-11-05T20:21:46.234Z,61.92
2022-11-05T20:24:18.733Z,73.28
2022-11-05T20:26:50.213Z,65.55
2022-11-05T20:29:16.970Z,84.30
2022-11-05T20:31:43.603Z,80.32
2022-11-05T20:34:10.602Z,67.43
2022-11-05T20:36:37.275Z,71.38
2022-11-05T20:39:04.050Z,83.95
2022-11-05T20:41:31.557Z,86.90
2022-11-05T20:43:58.276Z,86.15
2022-11-05T20:46:25.162Z,87.25
2022-11-05T20:48:51.937Z,64.85
2022-11-05T20:51:20.845Z,75.35
2022-11-05T20:53:47.939Z,65.22
2022-11-05T20:56:26.126Z,64.78
2022-11-05T20:58:53.321Z,65.93
2022-11-05T21:01:20.587Z,65.60
2022-11-05T21:03:47.847Z,63.55
2022-11-05T21:06:15.094Z,65.20
2022-11-05T21:08:42.095Z,62.50
2022-11-05T21:11:10.151Z,68.30
2022-11-05T21:13:36.885Z,67.60
2022-11-05T21:16:05.749Z,71.40
2022-11-05T21:18:34.619Z,64.35
2022-11-05T21:21:05.946Z,66.38
2022-11-05T21:23:32.593Z,73.50
2022-11-05T21:25:59.239Z,66.90
2022-11-05T21:28:25.899Z,73.30
2022-11-05T21:30:52.514Z,74.53
2022-11-05T21:33:19.190Z,60.30
2022-11-05T21:35:48.162Z,72.20
2022-11-05T21:38:16.232Z,74.93
2022-11-05T21:40:43.528Z,60.72
2022-11-05T21:43:10.628Z,59.05
2022-11-05T21:45:45.189Z,70.47
2022-11-05T21:48:12.306Z,55.67
2022-11-05T21:50:57.708Z,57.47
2022-11-05T21:53:43.712Z,55.22
2022-11-05T21:56:38.910Z,53.33
2022-11-05T21:59:24.795Z,53.97
2022-11-05T22:01:51.591Z,56.75
2022-11-05T22:04:18.364Z,55.25
2022-11-05T22:06:45.029Z,59.70
2022-11-05T22:09:11.683Z,57.40
2022-11-05T22:11:38.401Z,56.50
2022-11-05T22:14:05.064Z,53.38
2022-11-05T22:16:31.719Z,51.88
2022-11-05T22:18:59.063Z,58.40
2022-11-05T22:21:25.697Z,56.45
2022-11-05T22:23:53.219Z,59.25
2022-11-05T22:26:19.946Z,54.75
2022-11-05T22:28:46.637Z,57.47
2022-11-05T22:31:14.492Z,63.90
2022-11-05T22:33:41.216Z,57.78
2022-11-05T22:36:08.596Z,63.95
2022-11-05T22:38:35.590Z,67.60
2022-11-05T22:41:10.096Z,68.85
2022-11-05T22:43:37.022Z,65.30
2022-11-05T22:46:05.782Z,63.17
2022-11-05T22:48:33.045Z,65.13
2022-11-05T22:51:07.615Z,64.90
2022-11-05T22:53:35.345Z,62.20
2022-11-05T22:56:06.766Z,64.10
2022-11-05T22:58:33.807Z,67.65
2022-11-05T23:01:00.670Z,73.30
2022-11-05T23:03:28.869Z,69.03
2022-11-05T23:06:46.194Z,74.82
2022-11-05T23:09:40.447Z,99.88
2022-11-05T23:12:15.344Z,98.57
2022-11-05T23:14:41.990Z,108.07
2022-11-05T23:17:27.664Z,91.35
2022-11-05T23:20:12.908Z,100.50
2022-11-05T23:22:58.270Z,85.70
2022-11-05T23:25:25.046Z,87.05
2022-11-05T23:27:53.601Z,73.15
2022-11-05T23:30:23.009Z,70.40
2022-11-05T23:32:50.384Z,57.75
2022-11-05T23:35:17.528Z,56.42
2022-11-05T23:38:02.852Z,68.22
2022-11-05T23:40:30.858Z,75.20
2022-11-05T23:43:16.615Z,76.15
2022-11-05T23:46:03.023Z,66.72
2022-11-05T23:48:37.314Z,70.97
2022-11-05T23:51:11.236Z,79.63
2022-11-05T23:53:40.407Z,67.72
2022-11-05T23:56:10.047Z,72.57
2022-11-05T23:58:37.526Z,69.57
